Time;durP1;ratioP1;P1;durP2;ratioP2;P2;SDS_P1;SDS_P2;PMS_P1;PMS_P2;Temp;Humidity;BMP_temperature;BMP_pressure;BME280_temperature;BME280_humidity;BME280_pressure;Samples;Min_cycle;Max_cycle;Signal;HPM_P1;HPM_P2
2023/08/14 00:03:33;;;;;;;6.78;2.37;;;13.90;99.90;;;;;;7263747;32;20108;-55
2023/08/14 00:07:35;;;;;;;7.18;2.65;;;13.90;99.90;;;;;;7270839;32;20118;-55
2023/08/14 00:11:36;;;;;;;4.93;2.55;;;13.90;99.90;;;;;;7261993;32;20105;-55
2023/08/14 00:15:40;;;;;;;7.00;2.45;;;13.80;99.90;;;;;;7266614;32;20609;-54
2023/08/14 00:19:42;;;;;;;8.60;2.60;;;13.90;99.90;;;;;;7269087;32;20169;-54
2023/08/14 00:23:43;;;;;;;4.55;1.90;;;13.80;99.90;;;;;;7276701;32;20126;-54
2023/08/14 00:27:45;;;;;;;9.77;2.30;;;13.80;99.90;;;;;;7272193;32;20108;-54
2023/08/14 00:31:47;;;;;;;7.55;2.40;;;13.80;99.90;;;;;;7273840;32;20107;-54
2023/08/14 00:35:49;;;;;;;7.75;2.47;;;13.80;99.90;;;;;;7276368;32;20199;-54
2023/08/14 00:39:50;;;;;;;3.65;2.00;;;13.70;99.90;;;;;;7272481;32;20096;-55
2023/08/14 00:43:52;;;;;;;4.45;2.22;;;13.80;99.90;;;;;;7259504;32;20107;-54
2023/08/14 00:47:54;;;;;;;9.93;2.45;;;13.70;99.90;;;;;;7269919;32;20161;-54
2023/08/14 00:51:56;;;;;;;10.15;2.37;;;13.70;99.90;;;;;;7267833;32;20109;-54
2023/08/14 00:56:01;;;;;;;8.63;2.58;;;13.70;99.90;;;;;;7264148;32;20144;-55
2023/08/14 01:00:07;;;;;;;5.85;2.25;;;13.70;99.90;;;;;;7254444;32;20136;-54
2023/08/14 01:04:09;;;;;;;5.82;2.60;;;13.60;99.90;;;;;;7253960;32;20192;-54
2023/08/14 01:08:10;;;;;;;6.87;2.30;;;13.80;99.90;;;;;;7283995;32;20158;-54
2023/08/14 01:12:22;;;;;;;7.10;2.28;;;13.60;99.90;;;;;;7266200;32;20126;-54
2023/08/14 01:16:34;;;;;;;7.18;2.30;;;13.60;99.90;;;;;;7263799;32;20285;-54
2023/08/14 01:20:38;;;;;;;10.75;2.90;;;13.50;99.90;;;;;;7258837;32;20119;-54
2023/08/14 01:25:14;;;;;;;4.43;1.98;;;13.50;99.90;;;;;;7271333;32;20176;-54
2023/08/14 01:29:16;;;;;;;8.90;2.90;;;13.50;99.90;;;;;;7270004;32;20116;-54
2023/08/14 01:33:17;;;;;;;8.82;2.75;;;13.50;99.90;;;;;;7259211;32;20113;-54
2023/08/14 01:37:31;;;;;;;4.85;2.60;;;13.40;99.90;;;;;;7268369;32;20198;-54
2023/08/14 01:41:57;;;;;;;6.32;2.40;;;13.40;99.90;;;;;;7273102;32;20909;-54
2023/08/14 01:45:59;;;;;;;7.10;2.17;;;13.40;99.90;;;;;;7266732;32;20715;-54
2023/08/14 01:50:01;;;;;;;6.47;2.33;;;13.50;99.90;;;;;;7269052;32;20124;-54
2023/08/14 01:54:04;;;;;;;11.10;2.95;;;13.40;99.90;;;;;;7279270;32;20155;-54
2023/08/14 01:58:06;;;;;;;5.55;2.37;;;13.40;99.90;;;;;;7255604;32;20258;-54
2023/08/14 02:02:09;;;;;;;5.40;2.80;;;13.40;99.90;;;;;;7260094;32;20124;-54
2023/08/14 02:06:11;;;;;;;9.15;2.55;;;13.40;99.90;;;;;;7275128;32;20093;-55
2023/08/14 02:10:12;;;;;;;8.77;2.67;;;13.40;99.90;;;;;;7266321;32;20109;-55
2023/08/14 02:14:14;;;;;;;6.25;2.30;;;13.40;99.90;;;;;;7265090;32;20175;-55
2023/08/14 02:18:16;;;;;;;6.28;2.28;;;13.40;99.90;;;;;;7266428;32;20112;-54
2023/08/14 02:22:18;;;;;;;5.85;2.50;;;13.40;99.90;;;;;;7256949;32;20104;-54
2023/08/14 02:26:20;;;;;;;5.57;2.03;;;13.40;99.90;;;;;;7268361;32;20191;-54
2023/08/14 02:30:21;;;;;;;7.53;2.62;;;13.50;99.90;;;;;;7269783;32;20136;-54
2023/08/14 02:34:47;;;;;;;8.05;2.70;;;13.60;99.90;;;;;;7274552;32;20554;-54
2023/08/14 02:38:48;;;;;;;7.80;2.53;;;13.50;99.90;;;;;;7268926;32;20119;-54
2023/08/14 02:42:50;;;;;;;10.27;2.80;;;13.50;99.90;;;;;;7264902;32;20166;-54
2023/08/14 02:46:54;;;;;;;7.32;2.72;;;13.40;99.90;;;;;;7267044;32;20801;-54
2023/08/14 02:50:56;;;;;;;9.15;3.03;;;13.40;99.90;;;;;;7266314;32;20105;-55
2023/08/14 02:54:57;;;;;;;6.35;3.20;;;13.30;99.90;;;;;;7274896;32;20128;-54
2023/08/14 02:58:59;;;;;;;5.65;2.60;;;13.30;99.90;;;;;;7266350;32;20220;-54
2023/08/14 03:03:02;;;;;;;9.23;2.72;;;13.30;99.90;;;;;;7272661;32;20828;-55
2023/08/14 03:07:04;;;;;;;6.82;2.90;;;13.20;99.90;;;;;;7270138;32;20149;-55
2023/08/14 03:11:06;;;;;;;6.10;2.62;;;13.20;99.90;;;;;;7273105;32;20127;-55
2023/08/14 03:15:08;;;;;;;7.85;2.75;;;13.10;99.90;;;;;;7267010;32;20246;-54
2023/08/14 03:19:10;;;;;;;11.57;3.15;;;13.20;99.90;;;;;;7269929;32;20104;-54
2023/08/14 03:23:12;;;;;;;9.70;2.95;;;13.10;99.90;;;;;;7263646;32;20112;-54
2023/08/14 03:27:14;;;;;;;6.65;2.50;;;13.10;99.90;;;;;;7268059;32;20139;-54
2023/08/14 03:31:15;;;;;;;6.43;2.22;;;13.10;99.90;;;;;;7271315;32;20127;-55
2023/08/14 03:35:17;;;;;;;8.23;2.60;;;13.00;99.90;;;;;;7277183;32;20130;-54
2023/08/14 03:39:19;;;;;;;5.65;2.72;;;13.00;99.90;;;;;;7265353;32;20550;-54
2023/08/14 03:43:21;;;;;;;9.90;3.05;;;13.00;99.90;;;;;;7280968;32;20136;-54
2023/08/14 03:47:22;;;;;;;4.47;2.00;;;12.90;99.90;;;;;;7267302;32;20128;-54
2023/08/14 03:51:24;;;;;;;10.55;2.70;;;12.90;99.90;;;;;;7260797;32;20162;-56
2023/08/14 03:55:26;;;;;;;7.60;2.70;;;12.90;99.90;;;;;;7259516;32;20357;-54
2023/08/14 03:59:28;;;;;;;6.00;2.45;;;12.90;99.90;;;;;;7273814;32;20131;-54
2023/08/14 04:03:29;;;;;;;7.03;2.60;;;12.90;99.90;;;;;;7275405;32;20195;-54
2023/08/14 04:07:31;;;;;;;4.70;2.40;;;12.90;99.90;;;;;;7277432;32;20593;-54
2023/08/14 04:11:33;;;;;;;7.12;2.50;;;12.90;99.90;;;;;;7276702;32;20246;-54
2023/08/14 04:15:35;;;;;;;6.75;2.65;;;12.80;99.90;;;;;;7274931;32;20135;-56
2023/08/14 04:19:37;;;;;;;9.98;2.60;;;12.80;99.90;;;;;;7278315;32;20108;-54
2023/08/14 04:23:38;;;;;;;6.78;2.37;;;12.80;99.90;;;;;;7263540;32;20192;-54
2023/08/14 04:27:40;;;;;;;7.50;2.70;;;12.80;99.90;;;;;;7275351;32;20194;-55
2023/08/14 04:31:42;;;;;;;5.43;2.33;;;12.80;99.90;;;;;;7285923;32;20120;-54
2023/08/14 04:35:44;;;;;;;11.15;3.53;;;12.80;99.90;;;;;;7262193;32;20496;-54
2023/08/14 04:39:45;;;;;;;5.82;2.97;;;12.80;99.90;;;;;;7275414;32;20100;-55
2023/08/14 04:43:47;;;;;;;6.30;2.10;;;12.80;99.90;;;;;;7266551;32;20175;-54
2023/08/14 04:47:49;;;;;;;3.85;2.47;;;12.80;99.90;;;;;;7270431;32;20104;-56
2023/08/14 04:51:51;;;;;;;9.75;2.65;;;12.90;99.90;;;;;;7275554;32;20688;-55
2023/08/14 04:55:52;;;;;;;5.68;2.37;;;12.90;99.90;;;;;;7270968;32;20202;-55
2023/08/14 04:59:54;;;;;;;4.85;2.67;;;13.00;99.90;;;;;;7269112;32;20131;-55
2023/08/14 05:03:56;;;;;;;9.57;2.78;;;13.20;99.90;;;;;;7264671;32;20129;-56
2023/08/14 05:07:57;;;;;;;10.43;2.87;;;13.60;99.90;;;;;;7252445;32;20131;-56
2023/08/14 05:12:00;;;;;;;11.52;2.95;;;14.00;99.90;;;;;;7271372;32;20126;-56
2023/08/14 05:16:02;;;;;;;6.80;2.47;;;14.20;99.90;;;;;;7271831;32;20470;-55
2023/08/14 05:20:10;;;;;;;5.40;2.00;;;14.20;99.90;;;;;;7268984;32;20553;-56
2023/08/14 05:24:14;;;;;;;8.07;3.12;;;14.20;99.90;;;;;;7273790;32;20122;-56
2023/08/14 05:28:15;;;;;;;6.05;2.62;;;14.20;99.90;;;;;;7266971;32;20561;-57
2023/08/14 05:32:17;;;;;;;6.75;3.00;;;14.20;99.90;;;;;;7273180;32;20233;-56
2023/08/14 05:36:19;;;;;;;7.50;3.17;;;14.30;99.90;;;;;;7268390;32;20092;-56
2023/08/14 05:40:22;;;;;;;5.35;3.00;;;14.40;99.90;;;;;;7269991;32;20829;-56
2023/08/14 05:44:24;;;;;;;5.85;2.78;;;14.50;99.90;;;;;;7272730;32;20463;-55
2023/08/14 05:48:26;;;;;;;7.22;3.22;;;14.60;99.90;;;;;;7269050;32;20505;-55
2023/08/14 05:52:27;;;;;;;8.13;3.37;;;14.80;99.90;;;;;;7269562;32;20104;-55
2023/08/14 05:56:29;;;;;;;6.50;3.25;;;15.10;99.90;;;;;;7270146;32;20607;-55
2023/08/14 06:00:31;;;;;;;8.27;3.35;;;15.30;99.90;;;;;;7274915;32;20211;-56
2023/08/14 06:04:33;;;;;;;8.65;3.65;;;15.50;99.90;;;;;;7275405;32;20128;-56
2023/08/14 06:08:35;;;;;;;7.12;4.03;;;15.80;99.90;;;;;;7273798;32;20270;-56
2023/08/14 06:12:38;;;;;;;10.43;3.40;;;16.00;99.90;;;;;;7271742;32;20100;-56
2023/08/14 06:16:39;;;;;;;7.07;3.42;;;16.20;99.90;;;;;;7270647;32;20175;-56
2023/08/14 06:20:41;;;;;;;9.32;3.90;;;16.40;99.90;;;;;;7265900;32;20196;-56
2023/08/14 06:24:43;;;;;;;7.72;3.40;;;16.60;99.90;;;;;;7270992;32;20130;-55
2023/08/14 06:28:45;;;;;;;7.15;3.03;;;16.80;99.90;;;;;;7267989;32;20313;-56
2023/08/14 06:32:47;;;;;;;11.65;3.37;;;17.00;99.90;;;;;;7264909;32;20143;-56
2023/08/14 06:36:49;;;;;;;12.23;3.25;;;17.20;99.90;;;;;;7270435;32;20204;-56
2023/08/14 06:40:50;;;;;;;6.32;2.75;;;17.30;99.90;;;;;;7260992;32;20186;-56
2023/08/14 06:44:52;;;;;;;8.48;2.62;;;17.50;99.90;;;;;;7263515;32;20197;-55
2023/08/14 06:48:54;;;;;;;7.80;2.70;;;17.60;99.90;;;;;;7266574;32;20192;-55
2023/08/14 06:52:55;;;;;;;7.37;2.40;;;17.80;99.90;;;;;;7265386;32;20153;-56
2023/08/14 06:56:58;;;;;;;4.43;2.00;;;18.00;99.90;;;;;;7268248;32;20227;-56
2023/08/14 07:00:59;;;;;;;6.93;2.25;;;18.20;99.90;;;;;;7266719;32;20123;-55
2023/08/14 07:05:01;;;;;;;9.77;3.37;;;18.40;99.90;;;;;;7268266;32;20253;-56
2023/08/14 07:09:03;;;;;;;7.30;2.25;;;18.60;99.90;;;;;;7266768;32;20761;-56
2023/08/14 07:13:06;;;;;;;6.70;2.28;;;18.80;99.90;;;;;;7283098;32;20135;-57
2023/08/14 07:17:08;;;;;;;5.87;2.30;;;18.90;99.90;;;;;;7266764;32;20881;-56
2023/08/14 07:21:10;;;;;;;5.78;2.37;;;19.00;99.90;;;;;;7267940;32;20565;-56
2023/08/14 07:25:13;;;;;;;7.07;2.30;;;19.10;99.90;;;;;;7272401;32;20684;-56
2023/08/14 07:29:14;;;;;;;7.00;2.00;;;19.10;99.90;;;;;;7269625;32;20117;-55
2023/08/14 07:33:20;;;;;;;6.32;2.00;;;19.10;99.90;;;;;;7270848;32;20119;-56
2023/08/14 07:37:22;;;;;;;8.75;2.53;;;19.10;99.90;;;;;;7263063;32;20112;-56
2023/08/14 07:41:24;;;;;;;7.60;2.40;;;19.20;99.90;;;;;;7267756;32;20179;-56
2023/08/14 07:45:26;;;;;;;6.45;1.98;;;19.30;99.90;;;;;;7269729;32;20270;-56
2023/08/14 07:49:28;;;;;;;6.15;2.35;;;19.40;99.90;;;;;;7265798;32;20099;-57
2023/08/14 07:53:31;;;;;;;8.07;2.10;;;19.70;99.90;;;;;;7257715;32;20546;-57
2023/08/14 07:57:33;;;;;;;8.18;2.25;;;19.80;99.90;;;;;;7266227;32;20104;-57
2023/08/14 08:01:34;;;;;;;7.47;2.35;;;20.00;99.90;;;;;;7261370;32;20105;-58
2023/08/14 08:05:37;;;;;;;8.50;2.70;;;20.20;99.90;;;;;;7267544;32;20163;-57
2023/08/14 08:09:38;;;;;;;6.60;2.33;;;20.20;99.90;;;;;;7266074;32;20100;-56
2023/08/14 08:13:40;;;;;;;7.78;2.20;;;20.30;99.90;;;;;;7270837;32;20112;-58
2023/08/14 08:17:42;;;;;;;5.95;2.37;;;20.20;99.90;;;;;;7275520;32;20147;-58
2023/08/14 08:21:44;;;;;;;6.37;2.00;;;20.10;99.90;;;;;;7274705;32;20746;-56
2023/08/14 08:25:46;;;;;;;9.50;2.17;;;20.10;99.90;;;;;;7274354;32;20104;-57
2023/08/14 08:29:48;;;;;;;5.65;2.00;;;20.00;99.90;;;;;;7271461;32;20487;-56
2023/08/14 08:33:49;;;;;;;7.05;2.17;;;20.10;99.90;;;;;;7276390;32;20277;-55
2023/08/14 08:37:51;;;;;;;8.60;2.25;;;20.40;99.90;;;;;;7271123;32;20541;-54
2023/08/14 08:41:56;;;;;;;6.75;2.10;;;20.60;99.90;;;;;;7271113;32;20108;-59
2023/08/14 08:45:58;;;;;;;8.23;1.92;;;21.30;99.90;;;;;;7273162;32;20542;-53
2023/08/14 08:50:01;;;;;;;6.25;2.28;;;22.80;99.90;;;;;;7269093;32;20097;-54
2023/08/14 08:54:05;;;;;;;8.57;2.33;;;24.60;99.90;;;;;;7271170;32;20538;-56
2023/08/14 08:58:07;;;;;;;4.25;1.62;;;26.20;99.90;;;;;;7275104;32;20901;-53
2023/08/14 09:02:10;;;;;;;6.97;1.58;;;27.90;99.90;;;;;;7269840;32;20183;-53
2023/08/14 09:06:12;;;;;;;5.97;1.60;;;29.20;99.90;;;;;;7274010;32;20562;-54
2023/08/14 09:10:14;;;;;;;5.72;1.85;;;30.40;99.90;;;;;;7272287;32;20494;-54
2023/08/14 09:14:17;;;;;;;4.05;1.60;;;31.10;97.30;;;;;;7270078;32;20805;-54
2023/08/14 09:18:19;;;;;;;4.22;1.42;;;30.80;99.60;;;;;;7271503;32;20226;-53
2023/08/14 09:22:21;;;;;;;5.62;1.58;;;31.70;96.60;;;;;;7271617;32;20215;-55
2023/08/14 09:26:23;;;;;;;2.87;1.30;;;31.70;94.90;;;;;;7268775;32;20191;-55
2023/08/14 09:30:26;;;;;;;4.32;1.45;;;31.80;92.60;;;;;;7267937;32;20264;-55
2023/08/14 09:34:30;;;;;;;6.55;1.50;;;31.60;96.00;;;;;;7268288;32;20153;-54
2023/08/14 09:38:32;;;;;;;4.78;1.65;;;31.20;92.90;;;;;;7272924;32;20112;-54
2023/08/14 09:42:35;;;;;;;4.62;1.30;;;31.00;96.20;;;;;;7270111;32;20157;-54
2023/08/14 09:46:37;;;;;;;4.93;1.50;;;31.00;95.50;;;;;;7270231;32;20442;-54
2023/08/14 09:50:39;;;;;;;3.87;1.40;;;30.70;95.20;;;;;;7263792;32;20123;-54
2023/08/14 09:54:41;;;;;;;4.75;1.50;;;30.60;93.30;;;;;;7270309;32;20165;-55
2023/08/14 09:58:43;;;;;;;6.40;1.33;;;30.70;93.90;;;;;;7270100;32;20195;-54
2023/08/14 10:02:47;;;;;;;4.50;1.42;;;30.40;91.50;;;;;;7283573;32;20130;-53
2023/08/14 10:06:51;;;;;;;5.10;1.30;;;30.10;96.20;;;;;;7272594;32;20535;-53
2023/08/14 10:10:52;;;;;;;6.28;1.83;;;29.40;96.70;;;;;;7273584;32;20262;-53
2023/08/14 10:15:21;;;;;;;4.35;1.37;;;28.50;98.50;;;;;;7268718;32;20126;-57
2023/08/14 10:19:24;;;;;;;5.57;1.65;;;27.60;98.50;;;;;;7264383;32;20191;-56
2023/08/14 10:23:28;;;;;;;5.75;1.40;;;27.60;99.90;;;;;;7266515;32;20346;-56
2023/08/14 10:27:30;;;;;;;5.62;1.42;;;27.80;97.40;;;;;;7277332;32;20446;-57
2023/08/14 10:31:33;;;;;;;5.55;1.73;;;28.10;96.90;;;;;;7266956;32;20104;-57
2023/08/14 10:35:49;;;;;;;6.18;1.45;;;28.40;98.20;;;;;;7268358;32;20185;-56
2023/08/14 10:39:50;;;;;;;4.32;1.50;;;28.50;98.50;;;;;;7269123;32;20109;-57
2023/08/14 10:43:56;;;;;;;6.35;1.60;;;28.50;97.90;;;;;;7268861;32;20365;-58
2023/08/14 10:48:00;;;;;;;7.25;1.75;;;28.50;98.40;;;;;;7266310;32;20314;-57
2023/08/14 10:52:02;;;;;;;7.10;1.50;;;28.20;95.40;;;;;;7272204;32;20182;-57
2023/08/14 10:56:06;;;;;;;4.03;1.45;;;28.10;99.20;;;;;;7273235;32;20142;-57
2023/08/14 11:00:20;;;;;;;3.78;1.58;;;28.10;99.90;;;;;;7268126;32;20157;-58
2023/08/14 11:04:22;;;;;;;5.35;1.90;;;28.20;97.30;;;;;;7264054;32;20219;-57
2023/08/14 11:08:29;;;;;;;4.87;1.73;;;27.90;99.80;;;;;;7264062;32;20120;-57
2023/08/14 11:12:36;;;;;;;10.95;1.90;;;27.80;99.90;;;;;;7268122;32;20286;-57
2023/08/14 11:16:38;;;;;;;7.40;1.77;;;27.70;98.50;;;;;;7266399;32;20113;-57
2023/08/14 11:20:42;;;;;;;6.78;1.60;;;27.60;96.20;;;;;;7275565;32;20577;-57
2023/08/14 11:24:46;;;;;;;6.37;1.73;;;27.60;96.60;;;;;;7269597;32;20100;-58
2023/08/14 11:28:48;;;;;;;5.20;1.40;;;27.50;97.40;;;;;;7262326;32;20446;-57
2023/08/14 11:32:51;;;;;;;6.57;1.98;;;27.30;99.50;;;;;;7268357;32;20515;-57
2023/08/14 11:37:00;;;;;;;4.45;1.65;;;26.90;98.40;;;;;;7271675;32;20221;-57
2023/08/14 11:41:06;;;;;;;8.25;1.80;;;26.50;99.60;;;;;;7268926;32;20119;-57
2023/08/14 11:45:08;;;;;;;6.37;2.90;;;26.30;99.90;;;;;;7262041;32;20170;-57
2023/08/14 11:49:12;;;;;;;6.68;2.03;;;26.30;99.40;;;;;;7266639;32;20100;-57
2023/08/14 11:53:14;;;;;;;8.88;2.08;;;26.20;99.90;;;;;;7271672;32;20284;-57
2023/08/14 11:57:16;;;;;;;8.63;1.83;;;26.40;99.90;;;;;;7270035;32;20166;-57
2023/08/14 12:01:19;;;;;;;7.30;2.00;;;26.50;99.90;;;;;;7274967;32;20132;-57
2023/08/14 12:05:21;;;;;;;5.80;1.73;;;26.80;99.90;;;;;;7270983;32;20232;-57
2023/08/14 12:09:30;;;;;;;6.25;2.42;;;26.90;99.90;;;;;;7273407;32;20195;-57
2023/08/14 12:13:35;;;;;;;6.35;2.03;;;26.80;99.90;;;;;;7273142;32;20522;-57
2023/08/14 12:17:42;;;;;;;7.07;1.90;;;27.10;99.90;;;;;;7272264;32;20643;-57
2023/08/14 12:21:44;;;;;;;8.35;2.20;;;27.00;99.90;;;;;;7272461;32;20188;-57
2023/08/14 12:25:45;;;;;;;6.37;1.90;;;26.90;99.90;;;;;;7270914;32;20108;-58
2023/08/14 12:29:49;;;;;;;8.73;2.12;;;27.10;99.90;;;;;;7274706;32;20131;-56
2023/08/14 12:33:51;;;;;;;5.90;2.12;;;27.10;99.90;;;;;;7275327;32;20139;-58
2023/08/14 12:38:05;;;;;;;8.90;1.67;;;27.30;99.90;;;;;;7271250;32;20100;-57
2023/08/14 12:42:07;;;;;;;7.20;2.25;;;27.20;99.90;;;;;;7273329;32;20219;-57
2023/08/14 12:46:09;;;;;;;7.43;2.08;;;27.40;99.90;;;;;;7272163;32;20138;-55
2023/08/14 12:50:11;;;;;;;7.60;2.20;;;27.30;99.90;;;;;;7271004;32;20249;-56
2023/08/14 12:54:13;;;;;;;6.10;1.90;;;27.30;99.90;;;;;;7274873;32;20303;-56
2023/08/14 12:58:15;;;;;;;7.80;2.08;;;27.70;99.90;;;;;;7264646;32;20100;-57
2023/08/14 13:02:17;;;;;;;7.80;2.10;;;28.40;99.90;;;;;;7269419;32;20444;-56
2023/08/14 13:06:27;;;;;;;4.87;2.05;;;28.70;99.90;;;;;;7269484;32;20267;-58
2023/08/14 13:10:29;;;;;;;5.25;1.87;;;28.80;99.90;;;;;;7270108;32;20549;-56
2023/08/14 13:14:31;;;;;;;9.60;2.42;;;28.40;99.90;;;;;;7268864;32;20194;-59
2023/08/14 13:18:33;;;;;;;9.15;2.65;;;27.90;99.90;;;;;;7269771;32;20126;-56
2023/08/14 13:22:35;;;;;;;11.93;2.15;;;27.20;99.90;;;;;;7272293;32;21753;-57
2023/08/14 13:26:36;;;;;;;7.72;2.05;;;27.20;99.90;;;;;;7272477;32;20156;-57
2023/08/14 13:30:40;;;;;;;6.37;1.90;;;27.30;99.90;;;;;;7271259;32;20250;-58
2023/08/14 13:34:45;;;;;;;8.75;2.30;;;27.30;99.90;;;;;;7269648;32;20727;-57
2023/08/14 13:38:47;;;;;;;8.23;2.20;;;27.30;99.90;;;;;;7272543;32;20104;-56
2023/08/14 13:42:48;;;;;;;9.07;2.53;;;27.40;99.90;;;;;;7271068;32;20108;-57
2023/08/14 13:46:50;;;;;;;7.78;2.40;;;27.60;99.90;;;;;;7271791;32;20115;-56
2023/08/14 13:50:52;;;;;;;8.93;2.42;;;27.60;99.90;;;;;;7266946;32;20694;-53
2023/08/14 13:54:54;;;;;;;6.90;2.37;;;27.50;99.90;;;;;;7265720;32;20446;-58
2023/08/14 13:58:57;;;;;;;8.18;2.40;;;27.70;99.90;;;;;;7273729;32;20179;-56
2023/08/14 14:03:00;;;;;;;6.82;2.30;;;27.90;99.90;;;;;;7270708;32;20119;-56
2023/08/14 14:07:01;;;;;;;7.47;2.53;;;28.30;99.90;;;;;;7273002;32;20150;-58
2023/08/14 14:11:03;;;;;;;7.87;2.47;;;28.60;99.90;;;;;;7273975;32;20547;-56
2023/08/14 14:15:06;;;;;;;9.30;2.72;;;28.70;99.90;;;;;;7272487;32;20864;-56
2023/08/14 14:19:07;;;;;;;8.82;2.55;;;28.70;99.90;;;;;;7274691;32;20170;-56
2023/08/14 14:23:09;;;;;;;7.50;1.92;;;28.70;99.90;;;;;;7271615;32;20487;-57
2023/08/14 14:27:11;;;;;;;6.82;2.40;;;28.70;99.90;;;;;;7268828;32;20677;-58
2023/08/14 14:31:13;;;;;;;4.85;2.80;;;28.80;99.90;;;;;;7267152;32;20149;-56
2023/08/14 14:35:14;;;;;;;8.00;2.70;;;28.60;99.90;;;;;;7270559;32;20612;-56
2023/08/14 14:39:17;;;;;;;4.60;2.37;;;28.40;99.90;;;;;;7266574;32;20927;-56
2023/08/14 14:43:19;;;;;;;4.43;2.03;;;28.50;99.90;;;;;;7266645;32;20096;-57
2023/08/14 14:47:22;;;;;;;6.25;2.35;;;28.60;99.90;;;;;;7268467;32;20136;-57
2023/08/14 14:51:25;;;;;;;6.28;2.10;;;28.10;99.90;;;;;;7268856;32;20156;-57
2023/08/14 14:55:30;;;;;;;6.65;2.42;;;27.90;99.90;;;;;;7266508;32;20301;-57
2023/08/14 14:59:31;;;;;;;4.62;2.00;;;27.50;99.90;;;;;;7272614;32;20104;-57
2023/08/14 15:03:33;;;;;;;8.38;2.58;;;27.20;99.90;;;;;;7267240;32;20131;-57
2023/08/14 15:07:35;;;;;;;5.20;2.30;;;27.10;99.90;;;;;;7272181;32;20893;-56
2023/08/14 15:11:37;;;;;;;6.43;2.37;;;26.90;99.90;;;;;;7265680;32;20582;-56
2023/08/14 15:15:39;;;;;;;5.10;1.87;;;26.60;99.90;;;;;;7266480;32;20112;-56
2023/08/14 15:19:41;;;;;;;5.47;1.75;;;26.30;99.90;;;;;;7268735;32;20423;-61
2023/08/14 15:23:42;;;;;;;7.60;1.98;;;26.00;99.90;;;;;;7264697;32;20602;-59
2023/08/14 15:27:44;;;;;;;4.43;2.05;;;25.90;99.90;;;;;;7262689;32;20124;-57
2023/08/14 15:31:46;;;;;;;5.62;2.10;;;25.90;99.90;;;;;;7264935;32;20169;-58
2023/08/14 15:35:48;;;;;;;5.25;2.30;;;25.90;99.90;;;;;;7262961;32;20247;-57
2023/08/14 15:39:53;;;;;;;5.80;2.15;;;26.00;99.90;;;;;;7269344;32;20155;-56
2023/08/14 15:43:55;;;;;;;5.32;2.10;;;26.00;99.90;;;;;;7266428;32;20625;-57
2023/08/14 15:47:59;;;;;;;4.30;2.08;;;26.10;99.90;;;;;;7271822;32;20100;-56
2023/08/14 15:52:01;;;;;;;6.62;2.03;;;26.00;99.90;;;;;;7268130;32;20119;-57
2023/08/14 15:56:03;;;;;;;10.13;2.58;;;26.00;99.90;;;;;;7272125;32;20430;-56
2023/08/14 16:00:06;;;;;;;5.82;2.60;;;25.80;99.90;;;;;;7274387;32;20100;-58
2023/08/14 16:04:08;;;;;;;4.65;2.28;;;25.80;99.90;;;;;;7268993;32;20104;-56
2023/08/14 16:08:10;;;;;;;7.18;2.00;;;25.70;99.90;;;;;;7271963;32;20157;-57
2023/08/14 16:12:13;;;;;;;6.97;2.42;;;25.70;99.90;;;;;;7267697;32;20112;-57
2023/08/14 16:16:14;;;;;;;5.53;2.00;;;25.70;99.90;;;;;;7267439;32;20312;-57
2023/08/14 16:20:16;;;;;;;3.22;2.20;;;25.80;99.90;;;;;;7268050;32;20189;-57
2023/08/14 16:24:18;;;;;;;5.03;2.33;;;25.80;99.90;;;;;;7272209;32;20460;-57
2023/08/14 16:28:20;;;;;;;6.43;2.50;;;25.70;99.90;;;;;;7273416;32;20218;-57
2023/08/14 16:32:23;;;;;;;7.72;2.50;;;25.50;99.90;;;;;;7269646;32;20226;-56
2023/08/14 16:36:25;;;;;;;4.20;2.35;;;25.70;99.90;;;;;;7267690;32;20211;-56
2023/08/14 16:40:27;;;;;;;4.25;1.95;;;25.60;99.90;;;;;;7273073;32;20244;-57
2023/08/14 16:44:29;;;;;;;6.45;2.60;;;25.40;99.90;;;;;;7271390;32;20195;-57
2023/08/14 16:48:30;;;;;;;5.00;2.37;;;25.40;99.90;;;;;;7271114;32;20096;-57
2023/08/14 16:52:34;;;;;;;7.97;2.70;;;25.40;99.90;;;;;;7271759;32;20118;-57
2023/08/14 16:56:37;;;;;;;5.72;2.40;;;25.40;99.90;;;;;;7271246;32;20156;-57
2023/08/14 17:00:39;;;;;;;5.78;2.62;;;25.40;99.90;;;;;;7275999;32;20255;-57
2023/08/14 17:04:41;;;;;;;5.35;2.67;;;25.10;99.90;;;;;;7267050;32;20109;-58
2023/08/14 17:08:43;;;;;;;6.12;3.22;;;25.00;99.90;;;;;;7271296;32;20120;-57
2023/08/14 17:12:44;;;;;;;4.07;2.85;;;25.00;99.90;;;;;;7274841;32;20179;-58
2023/08/14 17:16:48;;;;;;;4.28;2.65;;;24.90;99.90;;;;;;7268560;32;20105;-56
2023/08/14 17:20:50;;;;;;;5.45;2.60;;;24.90;99.90;;;;;;7271579;32;20561;-57
2023/08/14 17:24:53;;;;;;;5.12;2.75;;;24.90;99.90;;;;;;7272500;32;20124;-57
2023/08/14 17:28:55;;;;;;;5.82;3.05;;;24.70;99.90;;;;;;7272179;32;20117;-57
2023/08/14 17:32:56;;;;;;;8.35;3.70;;;24.70;99.90;;;;;;7267982;32;20116;-57
2023/08/14 17:36:58;;;;;;;6.18;2.70;;;24.60;99.90;;;;;;7267496;32;20177;-57
2023/08/14 17:41:00;;;;;;;4.32;2.47;;;24.60;99.90;;;;;;7267831;32;20538;-57
2023/08/14 17:45:03;;;;;;;7.00;3.00;;;24.60;99.90;;;;;;7271326;32;20108;-58
2023/08/14 17:49:05;;;;;;;5.82;3.03;;;24.60;99.90;;;;;;7264273;32;20249;-57
2023/08/14 17:53:06;;;;;;;3.30;2.30;;;24.60;99.90;;;;;;7272476;32;20104;-56
2023/08/14 17:57:08;;;;;;;6.03;3.00;;;24.50;99.90;;;;;;7268053;32;20127;-57
2023/08/14 18:01:10;;;;;;;6.20;2.83;;;24.40;99.90;;;;;;7266526;32;20262;-57
2023/08/14 18:05:12;;;;;;;4.55;2.65;;;24.30;99.90;;;;;;7266576;32;20229;-57
2023/08/14 18:09:15;;;;;;;7.97;3.10;;;24.10;99.90;;;;;;7272671;32;20142;-57
2023/08/14 18:13:17;;;;;;;4.85;2.95;;;24.00;99.90;;;;;;7267435;32;20436;-57
2023/08/14 18:17:19;;;;;;;6.57;2.97;;;23.80;99.90;;;;;;7266459;32;20096;-57
2023/08/14 18:21:21;;;;;;;4.43;2.80;;;23.70;99.90;;;;;;7271886;32;20260;-57
2023/08/14 18:25:36;;;;;;;4.18;2.67;;;23.60;99.90;;;;;;7261493;32;20127;-55
2023/08/14 18:29:38;;;;;;;3.45;2.40;;;23.50;99.90;;;;;;7263846;32;20124;-56
2023/08/14 18:33:40;;;;;;;9.25;2.55;;;23.50;99.90;;;;;;7268076;32;20096;-55
2023/08/14 18:37:42;;;;;;;7.53;3.00;;;23.40;99.90;;;;;;7266497;32;20249;-57
2023/08/14 18:41:43;;;;;;;5.05;2.50;;;23.30;99.90;;;;;;7265515;32;20108;-56
2023/08/14 18:45:45;;;;;;;5.15;3.28;;;23.30;99.90;;;;;;7266896;32;20210;-56
2023/08/14 18:49:47;;;;;;;5.87;2.87;;;23.20;99.90;;;;;;7271105;32;20176;-56
2023/08/14 18:53:50;;;;;;;6.28;2.92;;;23.20;99.90;;;;;;7265118;32;20126;-55
2023/08/14 18:57:52;;;;;;;5.62;2.60;;;23.10;99.90;;;;;;7265503;32;20241;-56
2023/08/14 19:01:53;;;;;;;5.75;2.85;;;23.00;99.90;;;;;;7267696;32;20127;-56
2023/08/14 19:05:57;;;;;;;7.68;2.45;;;22.90;99.90;;;;;;7267040;32;20585;-56
2023/08/14 19:09:58;;;;;;;6.53;2.90;;;22.90;99.90;;;;;;7267148;32;20100;-55
2023/08/14 19:14:00;;;;;;;4.93;2.78;;;22.70;99.90;;;;;;7274315;32;20218;-55
2023/08/14 19:18:03;;;;;;;5.78;3.05;;;22.70;99.90;;;;;;7268969;32;20104;-55
2023/08/14 19:22:05;;;;;;;5.95;2.78;;;22.60;99.90;;;;;;7268663;32;20214;-55
2023/08/14 19:26:07;;;;;;;4.57;3.00;;;22.50;99.90;;;;;;7263368;32;20525;-55
2023/08/14 19:30:28;;;;;;;4.78;3.00;;;22.50;99.90;;;;;;7266117;32;20105;-57
2023/08/14 19:34:32;;;;;;;7.62;2.80;;;22.40;99.90;;;;;;7263845;32;20459;-55
2023/08/14 19:38:34;;;;;;;5.78;3.33;;;22.30;99.90;;;;;;7266169;32;20230;-55
2023/08/14 19:42:39;;;;;;;5.45;3.28;;;22.20;99.90;;;;;;7264645;32;20310;-56
2023/08/14 19:46:41;;;;;;;4.87;2.83;;;22.20;99.90;;;;;;7265249;32;20127;-56
2023/08/14 19:50:46;;;;;;;5.50;2.90;;;22.10;99.90;;;;;;7267330;32;20501;-56
2023/08/14 19:54:48;;;;;;;4.12;2.95;;;22.10;99.90;;;;;;7268052;32;20232;-56
2023/08/14 19:58:50;;;;;;;4.65;3.10;;;22.00;99.90;;;;;;7268642;32;20740;-56
2023/08/14 20:02:52;;;;;;;5.68;3.00;;;21.90;99.90;;;;;;7269318;32;20139;-56
2023/08/14 20:06:54;;;;;;;7.35;3.20;;;21.80;99.90;;;;;;7270339;32;20597;-55
2023/08/14 20:11:01;;;;;;;6.43;3.00;;;21.90;99.90;;;;;;7270531;32;20327;-55
2023/08/14 20:15:05;;;;;;;;;;;21.80;99.90;;;;;;7274597;32;20810;-56
2023/08/14 20:19:07;;;;;;;5.32;2.92;;;21.80;99.90;;;;;;7271868;32;20214;-55
2023/08/14 20:23:10;;;;;;;4.93;3.28;;;21.80;99.90;;;;;;7276461;32;20108;-55
2023/08/14 20:27:11;;;;;;;6.97;3.55;;;21.70;99.90;;;;;;7273614;32;20099;-56
2023/08/14 20:31:20;;;;;;;5.72;3.45;;;21.70;99.90;;;;;;7271350;32;20108;-56
2023/08/14 20:35:22;;;;;;;7.10;3.03;;;21.70;99.90;;;;;;7270242;32;20122;-56
2023/08/14 20:39:25;;;;;;;7.47;3.55;;;21.50;99.90;;;;;;7274881;32;20112;-55
2023/08/14 20:43:30;;;;;;;5.93;2.83;;;21.50;99.90;;;;;;7275427;32;20134;-56
2023/08/14 20:47:32;;;;;;;5.28;3.10;;;21.40;99.90;;;;;;7265576;32;20636;-56
2023/08/14 20:51:34;;;;;;;5.93;2.90;;;21.40;99.90;;;;;;7269907;32;20206;-57
2023/08/14 20:55:38;;;;;;;7.07;3.55;;;21.40;99.90;;;;;;7266615;32;20180;-56
2023/08/14 20:59:40;;;;;;;6.20;3.60;;;21.30;99.90;;;;;;7268225;32;20212;-55
2023/08/14 21:03:42;;;;;;;5.15;3.25;;;21.20;99.90;;;;;;7268090;32;20126;-56